Time;durP1;ratioP1;P1;durP2;ratioP2;P2;SDS_P1;SDS_P2;PMS_P1;PMS_P2;Temp;Humidity;BMP_temperature;BMP_pressure;BME280_temperature;BME280_humidity;BME280_pressure;Samples;Min_cycle;Max_cycle;Signal;HPM_P1;HPM_P2
2021/05/04 00:01:08;;;;;;;115.70;5.70;;;;;;;;;;5052912;28;20450;-79
2021/05/04 00:03:33;;;;;;;16.05;1.85;;;;;;;;;;5051203;28;20029;-80
2021/05/04 00:05:58;;;;;;;31.67;2.42;;;;;;;;;;5052645;28;20358;-79
2021/05/04 00:08:23;;;;;;;33.05;3.03;;;;;;;;;;5051624;28;20090;-80
2021/05/04 00:10:48;;;;;;;35.70;2.47;;;;;;;;;;5052173;28;20025;-80
2021/05/04 00:13:14;;;;;;;74.38;3.22;;;;;;;;;;5039162;28;20033;-80
2021/05/04 00:15:39;;;;;;;20.80;2.10;;;;;;;;;;5052262;28;20126;-79
2021/05/04 00:18:04;;;;;;;30.75;2.45;;;;;;;;;;5052511;28;20480;-79
2021/05/04 00:20:29;;;;;;;11.00;1.67;;;;;;;;;;5052541;28;20017;-79
2021/05/04 00:22:54;;;;;;;15.18;1.90;;;;;;;;;;5051281;28;20132;-80
2021/05/04 00:25:19;;;;;;;19.58;1.85;;;;;;;;;;5051009;28;20020;-80
2021/05/04 00:27:45;;;;;;;15.55;2.25;;;;;;;;;;5051265;28;20047;-80
2021/05/04 00:30:10;;;;;;;5.57;1.50;;;;;;;;;;5052794;28;20082;-80
2021/05/04 00:32:35;;;;;;;6.10;1.90;;;;;;;;;;5050974;28;20025;-80
2021/05/04 00:35:01;;;;;;;5.82;1.73;;;;;;;;;;5051131;28;20112;-80
2021/05/04 00:37:26;;;;;;;12.18;2.08;;;;;;;;;;5050817;28;20133;-81
2021/05/04 00:39:51;;;;;;;4.80;2.05;;;;;;;;;;5052202;28;20028;-81
2021/05/04 00:42:16;;;;;;;6.75;2.10;;;;;;;;;;5050861;28;20039;-81
2021/05/04 00:44:42;;;;;;;9.93;2.33;;;;;;;;;;5052356;28;20013;-81
2021/05/04 00:47:07;;;;;;;2.95;1.85;;;;;;;;;;5052336;28;20496;-81
2021/05/04 00:49:32;;;;;;;6.35;2.40;;;;;;;;;;5050739;28;20365;-81
2021/05/04 00:51:58;;;;;;;7.43;2.55;;;;;;;;;;5052165;28;20213;-81
2021/05/04 00:54:24;;;;;;;11.43;2.80;;;;;;;;;;5050099;28;20051;-81
2021/05/04 00:56:52;;;;;;;5.63;2.50;;;;;;;;;;5052021;28;20032;-81
2021/05/04 00:59:17;;;;;;;4.10;2.43;;;;;;;;;;5055708;28;20025;-81
2021/05/04 01:01:42;;;;;;;11.10;2.63;;;;;;;;;;5055249;28;20017;-81
2021/05/04 01:04:08;;;;;;;9.13;2.80;;;;;;;;;;5053767;28;20021;-80
2021/05/04 01:06:33;;;;;;;11.67;2.47;;;;;;;;;;5054521;28;20150;-80
2021/05/04 01:08:58;;;;;;;16.30;2.93;;;;;;;;;;5053105;28;20112;-81
2021/05/04 01:11:24;;;;;;;4.53;2.77;;;;;;;;;;5054234;28;20376;-81
2021/05/04 01:13:50;;;;;;;7.60;3.10;;;;;;;;;;5053862;28;20495;-80
2021/05/04 01:16:15;;;;;;;9.23;3.13;;;;;;;;;;5052154;28;20017;-80
2021/05/04 01:18:41;;;;;;;7.83;3.17;;;;;;;;;;5053338;28;20032;-81
2021/05/04 01:21:06;;;;;;;15.07;2.70;;;;;;;;;;5053265;28;20135;-81
2021/05/04 01:23:31;;;;;;;9.23;3.10;;;;;;;;;;5052833;28;20484;-81
2021/05/04 01:25:56;;;;;;;8.50;2.73;;;;;;;;;;5053259;28;20024;-81
2021/05/04 01:28:22;;;;;;;6.33;2.90;;;;;;;;;;5053329;28;20025;-81
2021/05/04 01:30:47;;;;;;;14.93;3.10;;;;;;;;;;5051409;28;20108;-81
2021/05/04 01:33:12;;;;;;;6.73;3.23;;;;;;;;;;5052352;28;20056;-81
2021/05/04 01:35:37;;;;;;;7.80;2.83;;;;;;;;;;5053303;28;20028;-81
2021/05/04 01:38:03;;;;;;;4.33;2.90;;;;;;;;;;5052382;28;20050;-81
2021/05/04 01:40:28;;;;;;;5.40;3.20;;;;;;;;;;5053646;28;20024;-81
2021/05/04 01:42:53;;;;;;;10.20;3.17;;;;;;;;;;5053257;28;20024;-81
2021/05/04 01:45:18;;;;;;;8.30;3.20;;;;;;;;;;5052849;28;20025;-82
2021/05/04 01:47:44;;;;;;;7.80;2.77;;;;;;;;;;5052151;28;20461;-82
2021/05/04 01:50:10;;;;;;;8.57;2.80;;;;;;;;;;5053606;28;20025;-81
2021/05/04 01:52:35;;;;;;;13.30;3.00;;;;;;;;;;5052284;28;20028;-81
2021/05/04 01:55:01;;;;;;;6.50;2.70;;;;;;;;;;5052024;28;20029;-81
2021/05/04 01:57:26;;;;;;;3.40;2.13;;;;;;;;;;5053688;28;20067;-81
2021/05/04 01:59:52;;;;;;;11.40;2.80;;;;;;;;;;5052268;28;20062;-81
2021/05/04 02:02:17;;;;;;;3.83;2.47;;;;;;;;;;5052610;28;20009;-81
2021/05/04 02:04:42;;;;;;;6.53;2.87;;;;;;;;;;5053863;28;20013;-81
2021/05/04 02:07:07;;;;;;;11.47;2.63;;;;;;;;;;5051803;28;20009;-81
2021/05/04 02:09:33;;;;;;;5.03;2.50;;;;;;;;;;5052450;28;20024;-81
2021/05/04 02:11:58;;;;;;;9.33;2.50;;;;;;;;;;5054016;28;20040;-81
2021/05/04 02:14:23;;;;;;;9.20;2.70;;;;;;;;;;5044247;28;20441;-81
2021/05/04 02:16:49;;;;;;;5.73;2.80;;;;;;;;;;5084861;28;20021;-81
2021/05/04 02:19:14;;;;;;;7.23;2.97;;;;;;;;;;5053225;28;20039;-81
2021/05/04 02:21:39;;;;;;;12.13;3.10;;;;;;;;;;5053689;28;20404;-81
2021/05/04 02:24:05;;;;;;;8.47;2.60;;;;;;;;;;5053156;28;20080;-81
2021/05/04 02:26:30;;;;;;;5.07;2.70;;;;;;;;;;5053316;28;20474;-80
2021/05/04 02:28:55;;;;;;;8.60;2.27;;;;;;;;;;5053837;28;20021;-80
2021/05/04 02:31:20;;;;;;;6.70;2.30;;;;;;;;;;5052088;28;20029;-81
2021/05/04 02:33:46;;;;;;;6.57;2.20;;;;;;;;;;5047714;28;20029;-81
2021/05/04 02:36:11;;;;;;;5.37;2.47;;;;;;;;;;5042133;28;20028;-81
2021/05/04 02:38:37;;;;;;;8.20;2.47;;;;;;;;;;5052200;28;20021;-81
2021/05/04 02:41:03;;;;;;;5.40;2.43;;;;;;;;;;5053852;28;20422;-81
2021/05/04 02:43:28;;;;;;;6.50;2.70;;;;;;;;;;5052291;28;21108;-80
2021/05/04 02:45:53;;;;;;;5.50;2.47;;;;;;;;;;5053721;28;20021;-80
2021/05/04 02:48:19;;;;;;;3.43;2.00;;;;;;;;;;5053500;28;20039;-81
2021/05/04 02:50:44;;;;;;;12.17;2.23;;;;;;;;;;5052406;28;20071;-81
2021/05/04 02:53:10;;;;;;;4.13;2.33;;;;;;;;;;5053554;28;20021;-81
2021/05/04 02:55:35;;;;;;;5.57;2.00;;;;;;;;;;5053443;28;20029;-80
2021/05/04 02:58:00;;;;;;;3.70;2.20;;;;;;;;;;5053526;28;20024;-80
2021/05/04 03:00:25;;;;;;;5.90;1.90;;;;;;;;;;5052122;28;20481;-80
2021/05/04 03:02:51;;;;;;;9.43;2.37;;;;;;;;;;5052209;28;20066;-81
2021/05/04 03:05:16;;;;;;;5.37;2.20;;;;;;;;;;5053443;28;20021;-80
2021/05/04 03:07:41;;;;;;;7.13;2.00;;;;;;;;;;5053377;28;20101;-81
2021/05/04 03:10:07;;;;;;;3.33;2.27;;;;;;;;;;5052146;28;20426;-81
2021/05/04 03:12:32;;;;;;;2.10;1.70;;;;;;;;;;5068535;28;20435;-80
2021/05/04 03:14:57;;;;;;;13.93;2.30;;;;;;;;;;5068854;28;20526;-80
2021/05/04 03:17:22;;;;;;;11.97;2.00;;;;;;;;;;5053091;28;20025;-80
2021/05/04 03:19:48;;;;;;;5.60;2.07;;;;;;;;;;5052727;28;20021;-80
2021/05/04 03:22:13;;;;;;;4.83;1.50;;;;;;;;;;5051909;28;20027;-80
2021/05/04 03:24:38;;;;;;;5.67;1.87;;;;;;;;;;5052744;28;20460;-80
2021/05/04 03:27:03;;;;;;;5.90;2.10;;;;;;;;;;5053222;28;20369;-80
2021/05/04 03:29:29;;;;;;;2.60;1.80;;;;;;;;;;5053032;28;20044;-80
2021/05/04 03:31:54;;;;;;;6.17;2.00;;;;;;;;;;5053064;28;20163;-80
2021/05/04 03:34:19;;;;;;;9.87;2.03;;;;;;;;;;5051744;28;20552;-80
2021/05/04 03:36:44;;;;;;;5.77;2.00;;;;;;;;;;5051470;28;20025;-80
2021/05/04 03:39:09;;;;;;;7.30;2.13;;;;;;;;;;5052871;28;20074;-80
2021/05/04 03:41:35;;;;;;;7.23;1.73;;;;;;;;;;5052742;28;20043;-80
2021/05/04 03:44:00;;;;;;;3.93;1.70;;;;;;;;;;5052993;28;20021;-80
2021/05/04 03:46:26;;;;;;;5.80;1.60;;;;;;;;;;5052714;28;20028;-80
2021/05/04 03:48:51;;;;;;;2.40;1.43;;;;;;;;;;5052927;28;20025;-80
2021/05/04 03:51:17;;;;;;;8.63;1.70;;;;;;;;;;5052828;28;20027;-80
2021/05/04 03:53:42;;;;;;;2.07;1.63;;;;;;;;;;5052568;28;20028;-80
2021/05/04 03:56:07;;;;;;;5.83;1.80;;;;;;;;;;5051535;28;20028;-80
2021/05/04 03:58:32;;;;;;;3.77;1.93;;;;;;;;;;5052413;28;20017;-80
2021/05/04 04:00:58;;;;;;;4.30;1.50;;;;;;;;;;5052789;28;20024;-80
2021/05/04 04:03:23;;;;;;;9.90;1.77;;;;;;;;;;5051080;28;20018;-80
2021/05/04 04:05:49;;;;;;;3.27;1.63;;;;;;;;;;5052725;28;20441;-80
2021/05/04 04:08:14;;;;;;;3.00;1.43;;;;;;;;;;5051413;28;20044;-80
2021/05/04 04:10:40;;;;;;;6.00;1.70;;;;;;;;;;5067792;28;20178;-81
2021/05/04 04:13:05;;;;;;;5.03;1.60;;;;;;;;;;5052428;28;20139;-80
2021/05/04 04:15:30;;;;;;;4.80;1.13;;;;;;;;;;5052449;28;20377;-80
2021/05/04 04:17:56;;;;;;;3.03;1.50;;;;;;;;;;5052503;28;20050;-80
2021/05/04 04:20:21;;;;;;;3.83;1.70;;;;;;;;;;5050877;28;20116;-80
2021/05/04 04:22:46;;;;;;;8.83;1.77;;;;;;;;;;5052327;28;20514;-80
2021/05/04 04:25:12;;;;;;;4.03;1.40;;;;;;;;;;5051229;28;20107;-80
2021/05/04 04:27:37;;;;;;;5.70;1.60;;;;;;;;;;5067631;28;20021;-80
2021/05/04 04:30:03;;;;;;;5.10;1.70;;;;;;;;;;5053837;28;20013;-80
2021/05/04 04:32:28;;;;;;;8.73;2.27;;;;;;;;;;5056414;28;20027;-80
2021/05/04 04:34:53;;;;;;;3.80;1.90;;;;;;;;;;5054958;28;20428;-80
2021/05/04 04:37:19;;;;;;;4.50;1.70;;;;;;;;;;5071823;28;20040;-80
2021/05/04 04:39:44;;;;;;;5.47;1.60;;;;;;;;;;5071496;28;20067;-80
2021/05/04 04:42:09;;;;;;;2.47;1.43;;;;;;;;;;5056326;28;20044;-80
2021/05/04 04:44:34;;;;;;;3.60;1.80;;;;;;;;;;5054897;28;20021;-80
2021/05/04 04:47:00;;;;;;;2.57;1.50;;;;;;;;;;5055013;28;20024;-80
2021/05/04 04:49:25;;;;;;;9.13;1.70;;;;;;;;;;5056196;28;20025;-80
2021/05/04 04:51:51;;;;;;;4.43;1.80;;;;;;;;;;5056069;28;20025;-80
2021/05/04 04:54:16;;;;;;;3.20;1.43;;;;;;;;;;5055979;28;20599;-80
2021/05/04 04:56:41;;;;;;;7.10;1.53;;;;;;;;;;5054646;28;20444;-79
2021/05/04 04:59:06;;;;;;;5.63;1.80;;;;;;;;;;5048161;28;20468;-81
2021/05/04 05:01:32;;;;;;;18.23;2.00;;;;;;;;;;5049934;28;20036;-80
2021/05/04 05:03:57;;;;;;;7.73;1.73;;;;;;;;;;5056115;28;20425;-80
2021/05/04 05:06:22;;;;;;;8.03;1.57;;;;;;;;;;5044117;28;20060;-80
2021/05/04 05:08:51;;;;;;;8.00;1.50;;;;;;;;;;5052037;28;20456;-79
2021/05/04 05:11:16;;;;;;;7.07;1.57;;;;;;;;;;5071170;28;20025;-80
2021/05/04 05:13:43;;;;;;;5.03;1.50;;;;;;;;;;5070864;28;20119;-80
2021/05/04 05:16:08;;;;;;;2.33;1.30;;;;;;;;;;5055663;28;20021;-80
2021/05/04 05:18:34;;;;;;;3.20;1.37;;;;;;;;;;5055453;28;20079;-80
2021/05/04 05:20:59;;;;;;;4.93;1.53;;;;;;;;;;5054302;28;20486;-80
2021/05/04 05:23:24;;;;;;;6.00;1.30;;;;;;;;;;5055330;28;20082;-80
2021/05/04 05:25:50;;;;;;;5.20;1.20;;;;;;;;;;5054208;28;20417;-80
2021/05/04 05:28:15;;;;;;;13.47;1.33;;;;;;;;;;5055334;28;20115;-80
2021/05/04 05:30:42;;;;;;;10.27;1.77;;;;;;;;;;5055354;28;20086;-79
2021/05/04 05:33:07;;;;;;;10.20;1.43;;;;;;;;;;5053995;28;20021;-80
2021/05/04 05:35:33;;;;;;;10.37;1.87;;;;;;;;;;5055250;28;20025;-80
2021/05/04 05:37:58;;;;;;;7.03;1.80;;;;;;;;;;5053626;28;20082;-80
2021/05/04 05:40:24;;;;;;;11.77;1.33;;;;;;;;;;5053976;28;20025;-80
2021/05/04 05:42:49;;;;;;;8.37;1.50;;;;;;;;;;5054576;28;20391;-80
2021/05/04 05:45:15;;;;;;;2.67;1.00;;;;;;;;;;5055057;28;20013;-80
2021/05/04 05:47:40;;;;;;;10.20;1.57;;;;;;;;;;5053948;28;20507;-80
2021/05/04 05:50:05;;;;;;;6.43;2.20;;;;;;;;;;5053655;28;20048;-80
2021/05/04 05:52:31;;;;;;;6.67;1.33;;;;;;;;;;5053787;28;20433;-80
2021/05/04 05:54:56;;;;;;;4.27;1.07;;;;;;;;;;5054902;28;20463;-80
2021/05/04 05:57:21;;;;;;;3.43;1.50;;;;;;;;;;5053653;28;20512;-80
2021/05/04 05:59:47;;;;;;;3.50;1.20;;;;;;;;;;5053627;28;20025;-80
2021/05/04 06:02:12;;;;;;;3.23;1.27;;;;;;;;;;5070172;28;20020;-80
2021/05/04 06:04:37;;;;;;;5.53;1.57;;;;;;;;;;5070257;28;20338;-80
2021/05/04 06:07:02;;;;;;;7.70;1.33;;;;;;;;;;5054597;28;20028;-80
2021/05/04 06:09:28;;;;;;;4.57;1.60;;;;;;;;;;5054800;28;20013;-80
2021/05/04 06:11:53;;;;;;;4.67;1.57;;;;;;;;;;5054419;28;20112;-80
2021/05/04 06:14:18;;;;;;;4.60;1.83;;;;;;;;;;5054540;28;20428;-80
2021/05/04 06:16:43;;;;;;;2.53;1.47;;;;;;;;;;5053229;28;20023;-80
2021/05/04 06:19:09;;;;;;;4.20;1.50;;;;;;;;;;5069744;28;20083;-80
2021/05/04 06:21:34;;;;;;;5.27;1.40;;;;;;;;;;5062390;28;20028;-80
2021/05/04 06:23:59;;;;;;;10.60;1.87;;;;;;;;;;5052957;28;20028;-80
2021/05/04 06:26:24;;;;;;;8.30;1.50;;;;;;;;;;5052930;28;20457;-80
2021/05/04 06:28:50;;;;;;;6.60;1.50;;;;;;;;;;5069632;28;20056;-80
2021/05/04 06:31:16;;;;;;;4.03;1.57;;;;;;;;;;5054156;28;20028;-80
2021/05/04 06:33:42;;;;;;;4.57;1.40;;;;;;;;;;5054260;28;20047;-80
2021/05/04 06:36:07;;;;;;;3.75;1.50;;;;;;;;;;5053968;28;20025;-80
2021/05/04 06:38:33;;;;;;;7.97;1.80;;;;;;;;;;5047384;28;20029;-80
2021/05/04 06:40:58;;;;;;;4.17;1.60;;;;;;;;;;5046791;28;20112;-80
2021/05/04 06:43:23;;;;;;;5.40;1.90;;;;;;;;;;5052552;28;20040;-80
2021/05/04 06:45:49;;;;;;;6.10;1.63;;;;;;;;;;5052747;28;20025;-80
2021/05/04 06:48:14;;;;;;;8.77;2.10;;;;;;;;;;5067909;28;20361;-80
2021/05/04 06:50:39;;;;;;;7.17;2.07;;;;;;;;;;5052559;28;20021;-80
2021/05/04 06:53:05;;;;;;;9.37;2.43;;;;;;;;;;5068082;28;20491;-80
2021/05/04 06:55:30;;;;;;;13.43;2.00;;;;;;;;;;5052250;28;20017;-80
2021/05/04 06:57:55;;;;;;;12.60;1.90;;;;;;;;;;5069087;28;20021;-80
2021/05/04 07:00:20;;;;;;;11.70;1.90;;;;;;;;;;5053420;28;20372;-81
2021/05/04 07:02:46;;;;;;;10.83;2.07;;;;;;;;;;5053713;28;20051;-80
2021/05/04 07:05:11;;;;;;;10.03;1.93;;;;;;;;;;5053483;28;20121;-80
2021/05/04 07:07:36;;;;;;;9.83;2.30;;;;;;;;;;5053415;28;20376;-80
2021/05/04 07:10:03;;;;;;;12.93;1.83;;;;;;;;;;5052233;28;20056;-80
2021/05/04 07:12:28;;;;;;;12.90;3.17;;;;;;;;;;5053142;28;20013;-81
2021/05/04 07:14:59;;;;;;;9.70;2.33;;;;;;;;;;5090370;27;20338;-81
2021/05/04 07:17:26;;;;;;;11.77;2.20;;;;;;;;;;5122705;27;20507;-81
2021/05/04 07:19:54;;;;;;;12.00;2.20;;;;;;;;;;5088658;28;20452;-82
2021/05/04 07:22:22;;;;;;;12.93;2.07;;;;;;;;;;5088677;28;20065;-82
2021/05/04 07:24:47;;;;;;;13.30;2.33;;;;;;;;;;5088442;28;20021;-82
2021/05/04 07:27:12;;;;;;;14.23;1.90;;;;;;;;;;5088385;28;20118;-81
2021/05/04 07:29:37;;;;;;;13.80;2.53;;;;;;;;;;5089631;28;20095;-81
2021/05/04 07:32:03;;;;;;;16.60;2.87;;;;;;;;;;5088332;28;20444;-81
2021/05/04 07:34:28;;;;;;;14.90;2.00;;;;;;;;;;5087851;28;20024;-81
2021/05/04 07:36:54;;;;;;;13.23;2.67;;;;;;;;;;5084687;28;20314;-81
2021/05/04 07:39:19;;;;;;;20.53;2.90;;;;;;;;;;5088236;28;20074;-81
2021/05/04 07:41:44;;;;;;;14.20;2.70;;;;;;;;;;5088186;28;20112;-81
2021/05/04 07:44:09;;;;;;;18.33;3.53;;;;;;;;;;5088531;28;20035;-81
2021/05/04 07:46:34;;;;;;;17.77;2.93;;;;;;;;;;5088211;28;20039;-81
2021/05/04 07:49:00;;;;;;;24.27;3.13;;;;;;;;;;5088284;28;20107;-80
2021/05/04 07:51:25;;;;;;;17.30;4.33;;;;;;;;;;5089517;28;20372;-81
2021/05/04 07:53:50;;;;;;;16.10;2.83;;;;;;;;;;5088097;28;20016;-81
2021/05/04 07:56:16;;;;;;;19.67;3.67;;;;;;;;;;5089455;28;20016;-81
2021/05/04 07:58:41;;;;;;;17.30;3.30;;;;;;;;;;5087904;28;20012;-81
2021/05/04 08:01:07;;;;;;;18.33;2.50;;;;;;;;;;5089444;28;20555;-81
2021/05/04 08:03:32;;;;;;;17.88;2.63;;;;;;;;;;5087839;28;20035;-81
2021/05/04 08:05:58;;;;;;;18.85;3.47;;;;;;;;;;5087865;28;20115;-81
2021/05/04 08:08:23;;;;;;;16.95;2.80;;;;;;;;;;5087857;28;20114;-82
2021/05/04 08:10:48;;;;;;;16.47;2.77;;;;;;;;;;5087927;28;20428;-81
2021/05/04 08:13:14;;;;;;;9.63;1.90;;;;;;;;;;5089023;28;20024;-81
2021/05/04 08:15:39;;;;;;;23.55;3.20;;;;;;;;;;5088824;28;20482;-81
2021/05/04 08:18:08;;;;;;;19.63;3.23;;;;;;;;;;5087769;28;20093;-81
2021/05/04 08:20:34;;;;;;;20.10;3.13;;;;;;;;;;5087747;28;20021;-81
2021/05/04 08:23:00;;;;;;;25.25;2.97;;;;;;;;;;5087461;28;20605;-81
2021/05/04 08:25:25;;;;;;;23.08;3.55;;;;;;;;;;5076499;28;20115;-81
2021/05/04 08:27:51;;;;;;;15.15;2.50;;;;;;;;;;5071960;28;20111;-80
2021/05/04 08:30:17;;;;;;;18.33;2.45;;;;;;;;;;5074011;28;20105;-80
2021/05/04 08:32:42;;;;;;;29.20;4.17;;;;;;;;;;5075027;28;20100;-80
2021/05/04 08:35:07;;;;;;;21.40;3.33;;;;;;;;;;5073684;28;20017;-81
2021/05/04 08:37:33;;;;;;;21.47;2.80;;;;;;;;;;5074145;28;20051;-81
2021/05/04 08:39:58;;;;;;;21.13;3.50;;;;;;;;;;5071960;28;20495;-81
2021/05/04 08:42:23;;;;;;;16.57;2.43;;;;;;;;;;5072114;28;20058;-81
2021/05/04 08:44:52;;;;;;;19.10;3.50;;;;;;;;;;5071867;28;20025;-80
2021/05/04 08:47:18;;;;;;;23.50;2.70;;;;;;;;;;5071925;28;20091;-81
2021/05/04 08:49:45;;;;;;;14.17;1.67;;;;;;;;;;5071102;28;20017;-80
2021/05/04 08:52:10;;;;;;;14.57;2.63;;;;;;;;;;5072770;28;20044;-80
2021/05/04 08:54:35;;;;;;;20.30;3.10;;;;;;;;;;5072542;28;20044;-80
2021/05/04 08:57:01;;;;;;;21.60;3.03;;;;;;;;;;5071905;28;20352;-80
2021/05/04 08:59:26;;;;;;;25.77;3.17;;;;;;;;;;5071827;28;20107;-80
2021/05/04 09:01:51;;;;;;;25.37;4.30;;;;;;;;;;5071245;28;20108;-80
2021/05/04 09:04:29;;;;;;;23.10;2.97;;;;;;;;;;5070972;28;20457;-80
2021/05/04 09:06:56;;;;;;;28.73;3.87;;;;;;;;;;5071143;28;20028;-80
2021/05/04 09:09:33;;;;;;;23.23;3.80;;;;;;;;;;5071648;28;20483;-80
2021/05/04 09:12:05;;;;;;;26.23;4.40;;;;;;;;;;5072728;28;20418;-80
2021/05/04 09:17:23;;;;;;;32.17;3.00;;;;;;;;;;5071358;28;20310;-81
2021/05/04 09:20:59;;;;;;;25.63;3.83;;;;;;;;;;5072891;28;20005;-81
2021/05/04 09:22:49;;;;;;;19.80;3.00;;;;;;;;;;5072219;28;20074;-81
2021/05/04 09:25:29;;;;;;;19.40;3.07;;;;;;;;;;5063913;28;20017;-81
2021/05/04 09:27:57;;;;;;;13.43;2.40;;;;;;;;;;5065653;28;20087;-81
2021/05/04 09:30:23;;;;;;;18.30;2.43;;;;;;;;;;5053452;28;20083;-81
2021/05/04 09:32:48;;;;;;;14.87;2.63;;;;;;;;;;5067050;28;20025;-81
2021/05/04 09:35:14;;;;;;;16.10;2.83;;;;;;;;;;5073181;28;20077;-81
2021/05/04 09:37:43;;;;;;;15.10;2.00;;;;;;;;;;5072189;28;20048;-81
2021/05/04 09:40:18;;;;;;;12.17;1.47;;;;;;;;;;5071912;28;20040;-80
2021/05/04 09:42:43;;;;;;;20.23;3.20;;;;;;;;;;5071995;28;20070;-81
2021/05/04 09:45:20;;;;;;;16.93;2.50;;;;;;;;;;5071424;28;20406;-80
2021/05/04 09:47:45;;;;;;;18.03;2.43;;;;;;;;;;5053872;28;20388;-80
2021/05/04 09:50:10;;;;;;;20.90;3.13;;;;;;;;;;5069989;28;20020;-81
2021/05/04 09:52:46;;;;;;;15.57;2.47;;;;;;;;;;5071914;28;20146;-81
2021/05/04 09:55:11;;;;;;;19.43;2.70;;;;;;;;;;5067908;28;20013;-81
2021/05/04 09:57:38;;;;;;;21.67;3.63;;;;;;;;;;5061004;28;20353;-80
2021/05/04 10:00:22;;;;;;;13.33;1.97;;;;;;;;;;5071085;28;20558;-81
2021/05/04 10:02:48;;;;;;;18.67;2.53;;;;;;;;;;5072915;28;20038;-80
2021/05/04 10:05:15;;;;;;;10.65;1.92;;;;;;;;;;5065884;28;20024;-81
2021/05/04 10:07:41;;;;;;;12.00;2.20;;;;;;;;;;5060095;28;20012;-81
2021/05/04 10:10:07;;;;;;;12.40;1.73;;;;;;;;;;5071557;28;20074;-80
2021/05/04 10:12:33;;;;;;;16.63;2.33;;;;;;;;;;5071450;28;20012;-81
2021/05/04 10:15:00;;;;;;;9.52;1.73;;;;;;;;;;5071398;28;20022;-81
2021/05/04 10:17:26;;;;;;;16.05;2.63;;;;;;;;;;5071142;28;20099;-81
2021/05/04 10:19:52;;;;;;;15.00;1.95;;;;;;;;;;5072724;28;20044;-81
2021/05/04 10:22:17;;;;;;;12.52;2.42;;;;;;;;;;5072586;28;20588;-81
2021/05/04 10:24:43;;;;;;;13.90;2.08;;;;;;;;;;5070932;28;20020;-80
2021/05/04 10:27:09;;;;;;;17.15;2.00;;;;;;;;;;5071396;28;20037;-81
2021/05/04 10:29:36;;;;;;;14.77;2.28;;;;;;;;;;5072602;28;20373;-80
2021/05/04 10:32:01;;;;;;;17.60;2.10;;;;;;;;;;5072716;28;20078;-81
2021/05/04 10:34:32;;;;;;;14.55;2.30;;;;;;;;;;5071090;28;20020;-81
2021/05/04 10:36:58;;;;;;;14.73;1.95;;;;;;;;;;5072678;28;20020;-81
2021/05/04 10:39:42;;;;;;;18.52;2.45;;;;;;;;;;5071213;28;20024;-81
2021/05/04 10:42:08;;;;;;;16.70;2.33;;;;;;;;;;5048594;28;20013;-81
2021/05/04 10:44:52;;;;;;;22.27;2.90;;;;;;;;;;5071854;28;20023;-80
2021/05/04 10:47:36;;;;;;;15.43;2.35;;;;;;;;;;5070669;28;20085;-81
2021/05/04 10:50:03;;;;;;;14.65;2.20;;;;;;;;;;5070488;28;20020;-80
2021/05/04 10:52:48;;;;;;;8.70;1.63;;;;;;;;;;5070648;28;20031;-80
2021/05/04 10:55:13;;;;;;;17.40;2.40;;;;;;;;;;5062615;28;20020;-80
2021/05/04 10:57:57;;;;;;;14.45;2.08;;;;;;;;;;5070757;28;20027;-80
2021/05/04 11:00:45;;;;;;;16.25;2.20;;;;;;;;;;5071524;28;20528;-80
2021/05/04 11:03:31;;;;;;;15.05;2.13;;;;;;;;;;5060888;28;20024;-80
2021/05/04 11:06:07;;;;;;;6.88;1.65;;;;;;;;;;5066850;28;20468;-80
2021/05/04 11:08:35;;;;;;;7.72;1.20;;;;;;;;;;5061061;28;20040;-81
2021/05/04 11:11:19;;;;;;;9.13;1.50;;;;;;;;;;5057096;28;20104;-80
2021/05/04 11:13:48;;;;;;;7.22;1.50;;;;;;;;;;5066556;28;20411;-80
2021/05/04 11:16:29;;;;;;;8.20;1.42;;;;;;;;;;5070495;28;20021;-80
2021/05/04 11:19:42;;;;;;;8.13;1.52;;;;;;;;;;5070535;28;20037;-80
2021/05/04 11:22:08;;;;;;;13.13;1.35;;;;;;;;;;5067079;28;20033;-81
2021/05/04 11:24:33;;;;;;;10.70;1.42;;;;;;;;;;5068177;28;20048;-81
2021/05/04 11:27:00;;;;;;;12.63;1.45;;;;;;;;;;5070669;28;20526;-81
2021/05/04 11:29:32;;;;;;;13.95;1.80;;;;;;;;;;5070491;28;20024;-81
2021/05/04 11:32:12;;;;;;;8.80;1.10;;;;;;;;;;5054828;28;20021;-81
2021/05/04 11:34:39;;;;;;;11.50;2.05;;;;;;;;;;5067044;28;20024;-81
2021/05/04 11:37:06;;;;;;;6.85;1.27;;;;;;;;;;5062690;28;20073;-80
2021/05/04 11:39:31;;;;;;;16.40;2.85;;;;;;;;;;5070487;28;20044;-80
2021/05/04 11:42:01;;;;;;;6.05;0.90;;;;;;;;;;5050608;28;20056;-81
2021/05/04 11:44:33;;;;;;;9.57;1.60;;;;;;;;;;5050042;28;20055;-81
2021/05/04 11:47:18;;;;;;;11.32;1.58;;;;;;;;;;5046908;28;20039;-81
2021/05/04 11:49:43;;;;;;;9.63;1.58;;;;;;;;;;5050956;28;20017;-81
2021/05/04 11:52:09;;;;;;;14.25;2.13;;;;;;;;;;5057062;28;20035;-81
2021/05/04 11:54:34;;;;;;;9.18;1.17;;;;;;;;;;5056933;28;20430;-81
2021/05/04 11:57:00;;;;;;;12.85;2.03;;;;;;;;;;5057118;28;20475;-80
2021/05/04 11:59:26;;;;;;;10.77;1.88;;;;;;;;;;5056709;28;20097;-81
2021/05/04 12:01:51;;;;;;;14.63;1.63;;;;;;;;;;5058600;28;20021;-81
2021/05/04 12:04:17;;;;;;;15.55;2.05;;;;;;;;;;5062162;28;20021;-81
2021/05/04 12:06:46;;;;;;;9.98;1.88;;;;;;;;;;5054848;28;20020;-80
2021/05/04 12:09:15;;;;;;;19.38;1.90;;;;;;;;;;5062733;28;20028;-80
2021/05/04 12:11:41;;;;;;;15.10;1.92;;;;;;;;;;5053839;28;20082;-80
2021/05/04 12:14:07;;;;;;;12.48;1.20;;;;;;;;;;5061772;28;20028;-81
2021/05/04 12:16:32;;;;;;;17.52;1.92;;;;;;;;;;5062498;28;20013;-81
2021/05/04 12:18:58;;;;;;;10.48;1.35;;;;;;;;;;5060012;28;20024;-80
2021/05/04 12:21:23;;;;;;;7.90;1.48;;;;;;;;;;5061015;28;20024;-80
2021/05/04 12:23:48;;;;;;;7.32;1.45;;;;;;;;;;5059961;28;20036;-81
2021/05/04 12:26:18;;;;;;;6.45;1.00;;;;;;;;;;5055412;28;20013;-81
2021/05/04 12:28:47;;;;;;;17.20;1.52;;;;;;;;;;5054384;28;20075;-80
2021/05/04 12:31:19;;;;;;;11.52;1.73;;;;;;;;;;5061697;28;20116;-81
2021/05/04 12:33:45;;;;;;;8.60;1.30;;;;;;;;;;5058635;28;20021;-80
2021/05/04 12:36:16;;;;;;;10.38;1.63;;;;;;;;;;5060580;28;20473;-81
2021/05/04 12:41:18;;;;;;;10.85;1.67;;;;;;;;;;5060570;28;20482;-81
2021/05/04 12:44:03;;;;;;;10.30;1.67;;;;;;;;;;5057480;28;20016;-80
2021/05/04 12:46:31;;;;;;;9.63;1.80;;;;;;;;;;5061254;28;20457;-81
2021/05/04 12:48:57;;;;;;;15.25;1.83;;;;;;;;;;5060091;28;20021;-80
2021/05/04 12:51:24;;;;;;;16.90;1.67;;;;;;;;;;5053942;28;20381;-81
2021/05/04 12:53:51;;;;;;;6.22;1.20;;;;;;;;;;5061271;28;20020;-80
2021/05/04 12:56:17;;;;;;;14.43;2.20;;;;;;;;;;5056689;28;20020;-80
2021/05/04 12:58:56;;;;;;;10.35;1.50;;;;;;;;;;5059907;28;20112;-80
2021/05/04 13:01:29;;;;;;;14.50;1.38;;;;;;;;;;5057340;28;20025;-81
2021/05/04 13:03:56;;;;;;;10.60;1.30;;;;;;;;;;5059098;28;20137;-80
2021/05/04 13:06:30;;;;;;;9.80;1.52;;;;;;;;;;5054902;28;20024;-80
2021/05/04 13:09:03;;;;;;;10.88;1.48;;;;;;;;;;5088000;28;20495;-80
2021/05/04 13:29:30;;;;;;;42.90;2.17;;;;;;;;;;5071702;28;20031;-80
2021/05/04 13:31:44;;;;;;;8.32;1.13;;;;;;;;;;5055134;28;20033;-80
2021/05/04 13:34:18;;;;;;;9.80;1.38;;;;;;;;;;5052299;28;20028;-80
2021/05/04 13:36:43;;;;;;;10.68;1.10;;;;;;;;;;5055968;28;20020;-80
2021/05/04 13:39:27;;;;;;;41.90;1.67;;;;;;;;;;5058936;28;20028;-80
2021/05/04 13:47:37;;;;;;;57.33;2.25;;;;;;;;;;5053944;28;20023;-80
2021/05/04 13:50:03;;;;;;;;;;;;;;;;;;5056742;28;20024;-80
2021/05/04 13:52:28;;;;;;;37.55;2.25;;;;;;;;;;5051926;28;20358;-80
2021/05/04 13:54:54;;;;;;;13.85;1.50;;;;;;;;;;5055339;28;20128;-80
2021/05/04 13:57:19;;;;;;;46.15;3.13;;;;;;;;;;5051897;28;20652;-79
2021/05/04 13:59:49;;;;;;;5.93;1.08;;;;;;;;;;5056250;28;20096;-81
2021/05/04 14:02:28;;;;;;;7.00;1.10;;;;;;;;;;5056465;28;20090;-80
2021/05/04 14:08:09;;;;;;;12.20;1.20;;;;;;;;;;5056185;28;20082;-80
2021/05/04 14:26:59;;;;;;;15.98;1.52;;;;;;;;;;5055228;28;20396;-80
2021/05/04 14:29:24;;;;;;;9.10;1.50;;;;;;;;;;5054641;28;20108;-79
2021/05/04 14:31:49;;;;;;;6.65;1.70;;;;;;;;;;5055521;28;20401;-80
2021/05/04 14:34:16;;;;;;;9.20;2.30;;;;;;;;;;5052937;28;20518;-80
2021/05/04 14:39:27;;;;;;;6.18;1.10;;;;;;;;;;5045583;28;20028;-81
2021/05/04 14:58:16;;;;;;;11.18;2.10;;;;;;;;;;5049398;28;20104;-81
2021/05/04 15:02:49;;;;;;;9.60;1.73;;;;;;;;;;5054557;28;20052;-81
2021/05/04 15:05:16;;;;;;;8.60;1.75;;;;;;;;;;5057908;28;20021;-83
2021/05/04 15:07:41;;;;;;;8.10;1.70;;;;;;;;;;5055789;28;20441;-82
2021/05/04 15:10:06;;;;;;;8.88;2.25;;;;;;;;;;5050819;28;20048;-82
2021/05/04 15:12:32;;;;;;;6.25;1.50;;;;;;;;;;5054770;28;20550;-82
2021/05/04 15:14:59;;;;;;;5.18;1.50;;;;;;;;;;5075282;28;20116;-83
2021/05/04 15:17:46;;;;;;;9.88;1.73;;;;;;;;;;5050356;28;20451;-82
2021/05/04 15:22:55;;;;;;;8.88;1.50;;;;;;;;;;5052572;28;20031;-82
2021/05/04 15:25:21;;;;;;;13.27;1.75;;;;;;;;;;5058316;28;20096;-82
2021/05/04 15:27:46;;;;;;;8.57;1.50;;;;;;;;;;5052757;28;20524;-82
2021/05/04 15:30:12;;;;;;;8.25;2.55;;;;;;;;;;5050300;28;20036;-82
2021/05/04 15:32:45;;;;;;;8.75;1.98;;;;;;;;;;5050792;28;20043;-83
2021/05/04 15:35:12;;;;;;;10.68;1.83;;;;;;;;;;5056273;28;20020;-83
2021/05/04 15:37:37;;;;;;;6.57;1.20;;;;;;;;;;5054170;28;20463;-83
2021/05/04 15:40:02;;;;;;;5.10;1.42;;;;;;;;;;5061558;28;20017;-83
2021/05/04 15:42:29;;;;;;;2.05;0.82;;;;;;;;;;5056313;28;20075;-83
2021/05/04 15:44:58;;;;;;;6.20;0.90;;;;;;;;;;5055996;28;20020;-83
2021/05/04 15:47:41;;;;;;;5.03;1.25;;;;;;;;;;5057642;28;20017;-83